Redwood City, CA (94061)

11:57 AM PDT on July 24, 2016 (GMT -0700)
West Atherton | | Change Station

Elev 171 ft 37.43 °N, 122.22 °W | Updated 1 day ago

Clear
Clear
79 °F
Feels Like 79 °F
N
8
Wind Variable Wind from WNW
Gusts mph

Today
High -- | Low -- °F
--% Chance of Precip.
Yesterday
High -- | Low -- °F
Precip. -- in
Pressure 29.89 in
Visibility 10.0 miles
Clouds Clear
Dew Point 58 °F
Humidity 48%
Rainfall in
Snow Depth Not available.
6:07 AM 8:23 PM
Waning Gibbous, 74% visible
METAR KSQL 241847Z 34007KT 10SM SKC 22/13 A2989
Pressure 29.89 in
Visibility 10.0 miles
Clouds Clear
Dew Point 58 °F
Humidity 48%
Rainfall in
Snow Depth Not available.
6:07 AM 8:23 PM
Waning Gibbous, 74% visible
METAR KSQL 241847Z 34007KT 10SM SKC 22/13 A2989

10-Day Weather Forecast

Almanac

Astronomy

Jul. 24, 2016 Rise Set
Actual Time
Civil Twilight
Nautical Twilight
Astronomical Twilight
Moon
Length of Visible Light
Length of Day
Tomorrow will be .
, % of the Moon is Illuminated

Today's Extremes

State Highs State Lows

Community

WunderPhotos

Upload Photos

1,927,157 photos uploaded!

WunderBlog® & News

Nearby

Air Quality

  Air Quality AQ Index Pollutant
Not available.

Snow Depth

Station Depth Elevation

Earthquake Activity

City Distance Mag. Time & Date
Minimum magnitude displayed is 2.5.

Coastal Water Temperatures

Place Temperature

Stations

Nearby Weather Stations

Station Location Temp. Windchill Dew Point Humidity Wind Precip. Elev Updated Type
                   

Watches & Warnings

There are currently no watches in effect.